Time;durP1;ratioP1;P1;durP2;ratioP2;P2;SDS_P1;SDS_P2;PMS_P1;PMS_P2;Temp;Humidity;BMP_temperature;BMP_pressure;BME280_temperature;BME280_humidity;BME280_pressure;Samples;Min_cycle;Max_cycle;Signal;HPM_P1;HPM_P2
2022/10/22 00:01:26;;;;;;;9.68;4.35;;;;;;;11.68;100.00;100729.44;5259151;28;20556;-69
2022/10/22 00:03:57;;;;;;;9.07;4.18;;;;;;;11.62;100.00;100727.28;5263277;28;20036;-68
2022/10/22 00:06:28;;;;;;;12.77;4.57;;;;;;;11.63;100.00;100726.28;5259135;28;20166;-68
2022/10/22 00:09:00;;;;;;;7.38;4.13;;;;;;;11.64;100.00;100732.47;5260207;28;20040;-69
2022/10/22 00:11:31;;;;;;;10.32;4.30;;;;;;;11.62;100.00;100724.63;5256584;28;20193;-69
2022/10/22 00:14:03;;;;;;;8.23;4.43;;;;;;;11.67;100.00;100726.91;5258700;28;20051;-69
2022/10/22 00:16:34;;;;;;;13.75;4.75;;;;;;;11.62;100.00;100723.75;5264499;28;20032;-69
2022/10/22 00:19:05;;;;;;;9.52;4.35;;;;;;;11.67;100.00;100727.72;5266827;28;20032;-69
2022/10/22 00:21:37;;;;;;;12.05;4.93;;;;;;;11.56;100.00;100722.44;5262705;28;20021;-69
2022/10/22 00:24:08;;;;;;;9.73;4.10;;;;;;;11.60;100.00;100721.19;5267756;28;20107;-69
2022/10/22 00:26:39;;;;;;;7.75;4.32;;;;;;;11.63;100.00;100723.63;5268519;28;20024;-69
2022/10/22 00:29:10;;;;;;;7.38;4.45;;;;;;;11.56;100.00;100717.09;5269963;28;20506;-69
2022/10/22 00:31:45;;;;;;;9.50;4.60;;;;;;;11.55;100.00;100713.56;5263278;28;20067;-70
2022/10/22 00:34:18;;;;;;;7.13;4.35;;;;;;;11.56;100.00;100722.44;5263967;28;20439;-70
2022/10/22 00:36:51;;;;;;;13.27;5.03;;;;;;;11.56;100.00;100728.66;5266695;28;20372;-70
2022/10/22 00:39:24;;;;;;;10.43;5.28;;;;;;;11.57;100.00;100729.47;5272248;28;20417;-70
2022/10/22 00:41:56;;;;;;;8.98;5.05;;;;;;;11.48;100.00;100733.75;5268500;28;20044;-70
2022/10/22 00:44:58;;;;;;;8.82;4.63;;;;;;;11.53;100.00;100728.88;5262601;28;20029;-70
2022/10/22 00:47:34;;;;;;;11.70;5.10;;;;;;;11.47;100.00;100731.22;5262897;28;20035;-70
2022/10/22 00:50:10;;;;;;;9.63;5.07;;;;;;;11.53;100.00;100728.88;5267437;28;20132;-69
2022/10/22 00:52:41;;;;;;;11.18;5.80;;;;;;;11.52;100.00;100726.34;5259808;28;20078;-70
2022/10/22 00:55:14;;;;;;;10.20;5.20;;;;;;;11.60;100.00;100726.53;5266808;28;20036;-70
2022/10/22 00:57:46;;;;;;;10.85;4.95;;;;;;;11.52;100.00;100726.34;5264432;28;20367;-70
2022/10/22 01:00:17;;;;;;;7.95;4.57;;;;;;;11.54;100.00;100727.91;5255995;28;20028;-69
2022/10/22 01:02:51;;;;;;;11.65;5.43;;;;;;;11.60;100.00;100725.69;5258815;28;20029;-70
2022/10/22 01:05:26;;;;;;;8.98;4.82;;;;;;;11.55;100.00;100724.25;5265976;28;20031;-70
2022/10/22 01:07:57;;;;;;;10.00;5.70;;;;;;;11.58;100.00;100731.16;5256877;28;20024;-69
2022/10/22 01:10:50;;;;;;;10.85;5.88;;;;;;;11.55;100.00;100726.94;5258717;28;20975;-69
2022/10/22 01:13:30;;;;;;;11.13;5.50;;;;;;;11.61;100.00;100725.56;5261373;28;20039;-70
2022/10/22 01:16:14;;;;;;;11.20;5.15;;;;;;;11.58;100.00;100728.50;5260487;28;20043;-70
2022/10/22 01:19:00;;;;;;;11.45;5.47;;;;;;;11.60;100.00;100731.88;5260212;28;20079;-70
2022/10/22 01:21:55;;;;;;;12.05;5.65;;;;;;;11.58;100.00;100729.38;5261721;28;20055;-70
2022/10/22 01:24:50;;;;;;;10.35;5.60;;;;;;;11.62;100.00;100723.75;5264931;28;20538;-70
2022/10/22 01:28:13;;;;;;;12.18;5.78;;;;;;;11.60;100.00;100720.34;5262184;28;20040;-70
2022/10/22 01:30:46;;;;;;;12.18;5.57;;;;;;;11.58;100.00;100720.47;5228744;28;20052;-70
2022/10/22 01:33:20;;;;;;;11.70;5.57;;;;;;;11.57;100.00;100722.31;5271505;28;20424;-70
2022/10/22 01:35:52;;;;;;;9.80;5.55;;;;;;;11.56;100.00;100725.09;5262024;28;20067;-70
2022/10/22 01:38:24;;;;;;;10.25;5.85;;;;;;;11.54;100.00;100725.25;5269248;28;20036;-70
2022/10/22 01:40:56;;;;;;;11.65;5.95;;;;;;;11.58;100.00;100713.31;5255904;28;20025;-70
2022/10/22 01:43:28;;;;;;;8.88;5.97;;;;;;;11.57;100.00;100711.63;5265009;28;20024;-70
2022/10/22 01:46:02;;;;;;;10.88;5.57;;;;;;;11.53;100.00;100712.84;5272377;28;20025;-70
2022/10/22 01:48:56;;;;;;;13.70;6.72;;;;;;;11.49;100.00;100707.91;5269372;28;20044;-70
2022/10/22 01:51:33;;;;;;;12.50;5.60;;;;;;;11.53;100.00;100706.66;5268998;28;20037;-69
2022/10/22 01:54:11;;;;;;;11.38;6.47;;;;;;;11.62;100.00;100713.94;5272568;28;20043;-70
2022/10/22 01:57:22;;;;;;;12.38;5.70;;;;;;;11.56;100.00;100714.41;5258423;28;20032;-70
2022/10/22 02:00:07;;;;;;;13.70;6.53;;;;;;;11.57;100.00;100716.97;5264556;28;20032;-70
2022/10/22 02:03:00;;;;;;;17.80;6.32;;;;;;;11.52;100.00;100721.81;5242599;28;20551;-70
2022/10/22 02:05:40;;;;;;;13.77;6.05;;;;;;;11.52;100.00;100715.63;5263519;28;20043;-69
2022/10/22 02:08:16;;;;;;;16.25;6.40;;;;;;;11.52;100.00;100721.81;5266711;28;20028;-70
2022/10/22 02:10:49;;;;;;;12.38;6.15;;;;;;;11.53;100.00;100722.69;5262873;28;20865;-70
2022/10/22 02:13:25;;;;;;;14.83;6.23;;;;;;;11.58;100.00;100726.69;5264139;28;20116;-70
2022/10/22 02:15:59;;;;;;;11.10;6.18;;;;;;;11.53;100.00;100731.56;5267097;28;20033;-70
2022/10/22 02:18:34;;;;;;;11.20;6.13;;;;;;;11.58;100.00;100723.16;5258206;28;20040;-70
2022/10/22 02:21:06;;;;;;;12.80;6.22;;;;;;;11.53;100.00;100726.22;5269726;28;20033;-70
2022/10/22 02:23:38;;;;;;;10.80;5.93;;;;;;;11.44;100.00;100721.63;5257429;28;20160;-70
2022/10/22 02:26:26;;;;;;;12.50;5.85;;;;;;;11.51;100.00;100725.50;5262221;28;20116;-70
2022/10/22 02:29:23;;;;;;;11.50;5.88;;;;;;;11.50;100.00;100725.63;5262472;28;20463;-70
2022/10/22 02:31:57;;;;;;;9.15;5.65;;;;;;;11.46;100.00;100724.16;5264963;28;20120;-70
2022/10/22 02:34:31;;;;;;;8.73;5.28;;;;;;;11.38;100.00;100722.13;5271144;28;20127;-70
2022/10/22 02:37:03;;;;;;;12.85;5.55;;;;;;;11.34;100.00;100726.03;5267152;28;20056;-70
2022/10/22 02:39:35;;;;;;;14.32;5.95;;;;;;;11.32;100.00;100725.31;5270040;28;20407;-70
2022/10/22 02:42:07;;;;;;;11.85;5.68;;;;;;;11.31;100.00;100713.78;5268145;28;20039;-70
2022/10/22 02:44:39;;;;;;;9.68;5.38;;;;;;;11.37;100.00;100718.63;5270913;28;20066;-70
2022/10/22 02:47:10;;;;;;;9.95;5.40;;;;;;;11.29;100.00;100728.22;5268767;28;21135;-70
2022/10/22 02:49:41;;;;;;;10.43;5.30;;;;;;;11.29;100.00;100726.38;5271660;28;20490;-70
2022/10/22 02:52:13;;;;;;;12.80;5.20;;;;;;;11.36;100.00;100734.75;5267237;28;20107;-70
2022/10/22 02:54:44;;;;;;;9.63;5.68;;;;;;;11.39;100.00;100734.53;5269544;28;20053;-70
2022/10/22 02:57:15;;;;;;;11.73;6.47;;;;;;;11.28;100.00;100735.38;5268142;28;20070;-70
2022/10/22 02:59:47;;;;;;;12.63;6.53;;;;;;;11.37;100.00;100739.13;5264735;28;20017;-70
2022/10/22 03:02:18;;;;;;;14.55;6.57;;;;;;;11.32;100.00;100733.31;5264182;28;20027;-70
2022/10/22 03:04:49;;;;;;;11.48;5.60;;;;;;;11.38;100.00;100738.16;5268758;28;20028;-70
2022/10/22 03:07:20;;;;;;;12.50;6.47;;;;;;;11.37;100.00;100745.34;5268113;28;20544;-70
2022/10/22 03:09:52;;;;;;;11.02;6.00;;;;;;;11.32;100.00;100744.00;5257576;28;20273;-70
2022/10/22 03:12:23;;;;;;;12.13;5.38;;;;;;;11.36;100.00;100748.13;5256589;28;20024;-70
2022/10/22 03:14:54;;;;;;;12.98;6.00;;;;;;;11.34;100.00;100752.75;5262608;28;20095;-70
2022/10/22 03:17:25;;;;;;;10.05;5.97;;;;;;;11.36;100.00;100742.78;5271700;28;20122;-70
2022/10/22 03:19:57;;;;;;;11.27;5.72;;;;;;;11.31;100.00;100736.94;5268093;28;20174;-70
2022/10/22 03:22:31;;;;;;;11.55;5.15;;;;;;;11.31;100.00;100745.84;5256933;28;20033;-70
2022/10/22 03:25:06;;;;;;;10.85;6.20;;;;;;;11.40;100.00;100744.22;5254956;28;20032;-70
2022/10/22 03:27:39;;;;;;;10.55;5.50;;;;;;;11.28;100.00;100742.56;5255949;28;20367;-70
2022/10/22 03:30:11;;;;;;;10.30;5.60;;;;;;;11.26;100.00;100742.69;5261748;28;20336;-70
2022/10/22 03:32:42;;;;;;;12.85;5.93;;;;;;;11.35;100.00;100746.41;5258652;28;20041;-70
2022/10/22 03:35:14;;;;;;;11.93;6.35;;;;;;;11.30;100.00;100746.78;5261699;28;20135;-70
2022/10/22 03:37:45;;;;;;;11.68;5.72;;;;;;;11.24;100.00;100751.78;5258128;28;20056;-69
2022/10/22 03:40:17;;;;;;;12.73;5.32;;;;;;;11.32;100.00;100757.34;5260534;28;20467;-70
2022/10/22 03:42:49;;;;;;;10.73;5.40;;;;;;;11.27;100.00;100765.72;5256620;28;20029;-70
2022/10/22 03:45:20;;;;;;;10.70;5.03;;;;;;;11.35;100.00;100765.09;5258571;28;20071;-70
2022/10/22 03:47:51;;;;;;;9.80;5.05;;;;;;;11.26;100.00;100766.72;5256352;28;20029;-68
2022/10/22 03:50:22;;;;;;;12.85;5.43;;;;;;;11.28;100.00;100764.78;5257863;28;20036;-70
2022/10/22 03:52:54;;;;;;;13.50;5.53;;;;;;;11.33;100.00;100769.72;5256985;28;20039;-70
2022/10/22 03:55:25;;;;;;;12.10;5.60;;;;;;;11.25;100.00;100769.50;5260298;28;20107;-70
2022/10/22 03:57:56;;;;;;;16.00;5.45;;;;;;;11.32;100.00;100781.41;5256749;28;20063;-70
2022/10/22 04:00:28;;;;;;;14.27;5.30;;;;;;;11.44;100.00;100772.38;5259512;28;20059;-70
2022/10/22 04:02:59;;;;;;;13.15;5.93;;;;;;;11.28;100.00;100772.78;5257694;28;20036;-70
2022/10/22 04:05:32;;;;;;;14.13;5.95;;;;;;;11.21;100.00;100779.59;5256865;28;20032;-70
2022/10/22 04:08:03;;;;;;;8.95;5.15;;;;;;;11.27;100.00;100772.91;5257252;28;20028;-70
2022/10/22 04:10:35;;;;;;;12.32;4.82;;;;;;;11.22;100.00;100777.75;5258046;28;20832;-70
2022/10/22 04:13:06;;;;;;;11.75;4.90;;;;;;;11.25;100.00;100774.84;5257749;28;20020;-70
2022/10/22 04:15:37;;;;;;;19.85;5.25;;;;;;;11.21;100.00;100784.94;5262098;28;20047;-70
2022/10/22 04:18:09;;;;;;;11.65;4.43;;;;;;;11.22;100.00;100783.09;5255325;28;20028;-70
2022/10/22 04:20:40;;;;;;;13.52;4.80;;;;;;;11.22;100.00;100781.28;5257683;28;20731;-70
2022/10/22 04:23:12;;;;;;;10.50;5.18;;;;;;;11.18;100.00;100786.03;5257888;28;20391;-69
2022/10/22 04:25:43;;;;;;;13.20;5.13;;;;;;;11.17;100.00;100789.66;5258111;28;20501;-70
2022/10/22 04:28:15;;;;;;;12.57;5.03;;;;;;;11.23;100.00;100784.81;5262178;28;20272;-70
2022/10/22 04:30:46;;;;;;;12.63;5.13;;;;;;;11.19;100.00;100781.53;5262829;28;20048;-70
2022/10/22 04:33:17;;;;;;;17.50;5.07;;;;;;;11.27;100.00;100784.44;5258365;28;20036;-70
2022/10/22 04:35:48;;;;;;;11.98;4.53;;;;;;;11.33;100.00;100783.97;5266109;28;20057;-69
2022/10/22 04:38:20;;;;;;;10.50;4.70;;;;;;;11.32;100.00;100781.41;5264099;28;21211;-69
2022/10/22 04:40:51;;;;;;;13.90;4.80;;;;;;;11.25;100.00;100781.03;5266285;28;20117;-70
2022/10/22 04:43:22;;;;;;;15.32;5.55;;;;;;;11.25;100.00;100780.19;5267359;28;20031;-69
2022/10/22 04:45:53;;;;;;;14.95;4.90;;;;;;;11.34;100.00;100780.28;5264564;28;20028;-70
2022/10/22 04:48:25;;;;;;;14.80;5.07;;;;;;;11.32;100.00;100781.41;5263582;28;20032;-68
2022/10/22 04:50:59;;;;;;;13.82;5.60;;;;;;;11.29;100.00;100792.31;5264026;28;20024;-69
2022/10/22 04:53:31;;;;;;;14.80;5.55;;;;;;;11.41;100.00;100791.34;5259524;28;20024;-68
2022/10/22 04:56:10;;;;;;;16.33;5.45;;;;;;;11.34;100.00;100796.31;5269792;28;20814;-69
2022/10/22 04:58:43;;;;;;;14.70;5.20;;;;;;;11.37;100.00;100793.41;5263987;28;20052;-69
2022/10/22 05:01:16;;;;;;;19.10;5.90;;;;;;;11.37;100.00;100797.88;5264925;28;20390;-69
2022/10/22 05:03:49;;;;;;;18.95;6.30;;;;;;;11.36;100.00;100801.53;5262310;28;20499;-69
2022/10/22 05:06:22;;;;;;;12.50;5.30;;;;;;;11.40;100.00;100799.47;5271540;28;20040;-69
2022/10/22 05:08:55;;;;;;;13.23;5.50;;;;;;;11.54;100.00;100797.41;5270201;28;20063;-69
2022/10/22 05:11:30;;;;;;;15.43;5.50;;;;;;;11.45;100.00;100800.81;5273169;28;20098;-69
2022/10/22 05:14:03;;;;;;;14.98;5.60;;;;;;;11.42;100.00;100806.38;5263522;28;20580;-69
2022/10/22 05:16:36;;;;;;;16.83;5.85;;;;;;;11.49;100.00;100798.75;5271069;28;20036;-69
2022/10/22 05:19:14;;;;;;;13.98;6.35;;;;;;;11.58;100.00;100797.97;5267505;28;20028;-68
2022/10/22 05:21:46;;;;;;;16.40;5.93;;;;;;;11.65;100.00;100795.66;5269986;28;20368;-69
2022/10/22 05:24:17;;;;;;;18.85;6.63;;;;;;;11.61;100.00;100795.06;5260803;28;20031;-68
2022/10/22 05:26:50;;;;;;;18.60;5.95;;;;;;;11.69;100.00;100811.31;5261273;28;20040;-69
2022/10/22 05:29:22;;;;;;;21.55;6.72;;;;;;;11.81;100.00;100813.94;5263825;28;20040;-68
2022/10/22 05:31:54;;;;;;;13.32;5.63;;;;;;;11.72;100.00;100810.22;5268447;28;20482;-69
2022/10/22 05:34:25;;;;;;;16.95;6.20;;;;;;;11.76;100.00;100801.81;5267115;28;20047;-68
2022/10/22 05:36:56;;;;;;;18.10;5.65;;;;;;;11.79;100.00;100811.41;5262876;28;20025;-68
2022/10/22 05:39:28;;;;;;;17.80;5.72;;;;;;;11.73;100.00;100811.91;5262972;28;20058;-69
2022/10/22 05:41:59;;;;;;;12.65;5.45;;;;;;;11.75;100.00;100812.63;5275270;28;20060;-69
2022/10/22 05:44:30;;;;;;;16.85;5.18;;;;;;;11.74;100.00;100816.28;5264999;28;20479;-70
2022/10/22 05:47:02;;;;;;;18.90;5.45;;;;;;;11.69;100.00;100819.31;5258813;28;20029;-69
2022/10/22 05:49:33;;;;;;;15.05;5.32;;;;;;;11.80;100.00;100823.81;5269519;28;20040;-68
2022/10/22 05:52:04;;;;;;;13.25;4.70;;;;;;;11.73;100.00;100833.28;5267909;28;20118;-69
2022/10/22 05:54:35;;;;;;;11.15;4.65;;;;;;;11.81;100.00;100830.00;5264934;28;20112;-69
2022/10/22 05:57:07;;;;;;;11.98;4.47;;;;;;;11.75;100.00;100826.00;5262206;28;20036;-68
2022/10/22 05:59:38;;;;;;;14.05;5.05;;;;;;;11.68;100.00;100825.66;5265255;28;20039;-68
2022/10/22 06:02:11;;;;;;;15.52;4.82;;;;;;;11.70;100.00;100836.22;5262540;28;20028;-68
2022/10/22 06:04:43;;;;;;;13.45;4.60;;;;;;;11.71;100.00;100838.75;5263983;28;20031;-69
2022/10/22 06:07:15;;;;;;;11.48;4.38;;;;;;;11.75;100.00;100852.72;5243374;28;20483;-69
2022/10/22 06:09:49;;;;;;;17.10;5.55;;;;;;;11.73;100.00;100849.31;5259867;28;20041;-68
2022/10/22 06:12:20;;;;;;;12.63;4.38;;;;;;;11.69;100.00;100853.22;5266249;28;20082;-68
2022/10/22 06:14:51;;;;;;;10.20;4.82;;;;;;;11.67;100.00;100848.00;5262235;28;20034;-71
2022/10/22 06:17:22;;;;;;;13.30;4.15;;;;;;;11.69;100.00;100855.91;5266811;28;20036;-69
2022/10/22 06:19:54;;;;;;;11.30;4.40;;;;;;;11.75;100.00;100860.75;5265641;28;20024;-70
2022/10/22 06:22:25;;;;;;;10.23;3.95;;;;;;;11.80;100.00;100855.03;5275624;28;20102;-69
2022/10/22 06:24:56;;;;;;;15.07;4.82;;;;;;;11.77;100.00;100874.84;5271416;28;20036;-69
2022/10/22 06:27:27;;;;;;;13.35;4.30;;;;;;;11.80;100.00;100874.59;5277243;28;20025;-69
2022/10/22 06:29:59;;;;;;;10.88;3.90;;;;;;;11.72;100.00;100872.53;5271450;28;20021;-69
2022/10/22 06:32:30;;;;;;;12.68;4.18;;;;;;;11.82;100.00;100880.66;5279204;28;20028;-69
2022/10/22 06:35:02;;;;;;;10.98;3.95;;;;;;;11.71;100.00;100881.53;5274373;28;20029;-69
2022/10/22 06:37:33;;;;;;;12.05;4.22;;;;;;;11.81;100.00;100889.66;5273752;28;20107;-69
2022/10/22 06:40:05;;;;;;;9.27;3.58;;;;;;;11.77;100.00;100894.41;5278494;28;20359;-69
2022/10/22 06:42:36;;;;;;;10.60;3.65;;;;;;;11.79;100.00;100896.94;5274063;28;20028;-70
2022/10/22 06:45:08;;;;;;;12.05;3.67;;;;;;;11.80;100.00;100900.47;5272898;28;20020;-69
2022/10/22 06:47:40;;;;;;;14.45;3.85;;;;;;;11.80;100.00;100906.66;5276133;28;20111;-69
2022/10/22 06:50:11;;;;;;;10.00;4.00;;;;;;;11.72;100.00;100906.44;5271409;28;20036;-69
2022/10/22 06:52:42;;;;;;;10.65;3.67;;;;;;;11.75;100.00;100903.50;5274137;28;20028;-69
2022/10/22 06:55:13;;;;;;;11.68;3.80;;;;;;;11.77;100.00;100910.44;5272263;28;20055;-69
2022/10/22 06:57:45;;;;;;;8.65;3.53;;;;;;;11.74;100.00;100913.34;5278763;28;20400;-69
2022/10/22 07:00:16;;;;;;;8.30;3.47;;;;;;;11.84;100.00;100926.00;5272867;28;20040;-69
2022/10/22 07:02:51;;;;;;;8.52;3.45;;;;;;;11.71;100.00;100926.97;5272926;28;20036;-69
2022/10/22 07:05:23;;;;;;;8.73;3.70;;;;;;;11.76;100.00;100935.47;5274129;28;20040;-69
2022/10/22 07:07:54;;;;;;;13.40;4.25;;;;;;;11.72;100.00;100933.19;5278878;28;20435;-69
2022/10/22 07:10:25;;;;;;;11.98;4.32;;;;;;;11.73;100.00;100940.22;5264151;28;20055;-69
2022/10/22 07:12:57;;;;;;;8.38;3.22;;;;;;;11.84;100.00;100934.84;5280004;28;20102;-70
2022/10/22 07:15:28;;;;;;;11.60;4.25;;;;;;;11.90;100.00;100945.09;5277545;28;20020;-69
2022/10/22 07:17:59;;;;;;;13.30;5.15;;;;;;;11.95;100.00;100952.75;5279510;28;20052;-69
2022/10/22 07:20:31;;;;;;;14.23;6.53;;;;;;;11.96;100.00;100952.59;5267272;28;20057;-69
2022/10/22 07:23:02;;;;;;;17.58;7.80;;;;;;;11.93;100.00;100958.22;5263475;28;20479;-69
2022/10/22 07:25:33;;;;;;;17.25;9.02;;;;;;;11.95;100.00;100955.41;5270557;28;20047;-69
2022/10/22 07:28:05;;;;;;;13.82;9.25;;;;;;;12.00;100.00;100960.38;5276716;28;20036;-69
2022/10/22 07:30:37;;;;;;;14.27;5.45;;;;;;;12.04;100.00;100960.03;5272245;28;20020;-69
2022/10/22 07:33:09;;;;;;;13.73;4.55;;;;;;;12.01;100.00;100959.44;5273475;28;20487;-70
2022/10/22 07:35:41;;;;;;;12.85;4.22;;;;;;;12.07;100.00;100972.28;5273820;28;20020;-69
2022/10/22 07:38:12;;;;;;;13.63;3.78;;;;;;;12.01;100.00;100975.47;5279394;28;20021;-69
2022/10/22 07:40:43;;;;;;;11.73;3.70;;;;;;;12.07;100.00;100978.50;5279089;28;20089;-69
2022/10/22 07:43:15;;;;;;;12.68;3.80;;;;;;;12.17;100.00;100981.25;5268283;28;20036;-69
2022/10/22 07:45:46;;;;;;;15.68;3.70;;;;;;;12.10;100.00;100980.06;5270338;28;20170;-69
2022/10/22 07:48:17;;;;;;;11.55;3.70;;;;;;;12.10;100.00;100980.06;5274507;28;20513;-69
2022/10/22 07:50:49;;;;;;;11.35;3.60;;;;;;;12.12;100.00;100980.81;5277892;28;20020;-70
2022/10/22 07:53:21;;;;;;;14.57;3.50;;;;;;;12.24;100.00;100990.50;5279397;28;20107;-69
2022/10/22 07:55:53;;;;;;;8.27;3.30;;;;;;;12.18;100.00;100984.78;5276281;28;20112;-69
2022/10/22 07:58:24;;;;;;;10.15;3.20;;;;;;;12.19;100.00;100990.00;5273904;28;20032;-70
2022/10/22 08:00:59;;;;;;;8.82;2.92;;;;;;;12.23;100.00;100990.63;5269042;28;20501;-70
2022/10/22 08:03:31;;;;;;;11.85;3.38;;;;;;;12.45;100.00;100997.75;5269982;28;20039;-70
2022/10/22 08:06:03;;;;;;;9.13;3.22;;;;;;;12.28;100.00;100999.97;5268334;28;20029;-70
2022/10/22 08:08:34;;;;;;;10.35;3.03;;;;;;;12.33;100.00;101003.13;5273650;28;20036;-70
2022/10/22 08:11:06;;;;;;;16.77;3.97;;;;;;;12.32;100.00;101011.28;5270152;28;20097;-70
2022/10/22 08:13:38;;;;;;;13.13;3.63;;;;;;;12.45;100.00;101016.50;5273945;28;20028;-70
2022/10/22 08:16:09;;;;;;;10.55;2.85;;;;;;;12.47;100.00;101014.53;5273728;28;20044;-70
2022/10/22 08:18:40;;;;;;;10.70;2.72;;;;;;;12.55;100.00;101012.91;5260245;28;20542;-69
2022/10/22 08:21:12;;;;;;;9.05;2.83;;;;;;;12.70;100.00;101018.84;5277787;28;20505;-70
2022/10/22 08:23:43;;;;;;;13.40;3.78;;;;;;;12.69;100.00;101019.81;5266249;28;20045;-70
2022/10/22 08:26:14;;;;;;;10.48;2.83;;;;;;;12.63;100.00;101024.81;5259057;28;20044;-70
2022/10/22 08:28:45;;;;;;;11.55;3.35;;;;;;;12.71;100.00;101033.94;5270258;28;20509;-70
2022/10/22 08:31:17;;;;;;;12.60;3.40;;;;;;;12.83;100.00;101041.91;5277484;28;20028;-71
2022/10/22 08:33:49;;;;;;;10.07;2.90;;;;;;;12.89;100.00;101046.78;5267620;28;20052;-70
2022/10/22 08:36:20;;;;;;;13.60;2.90;;;;;;;13.13;100.00;101043.84;5272379;28;20031;-70
2022/10/22 08:38:51;;;;;;;11.65;2.83;;;;;;;13.10;100.00;101050.34;5278204;28;20107;-70
2022/10/22 08:41:23;;;;;;;9.48;2.88;;;;;;;13.14;100.00;101046.41;5274562;28;20160;-71
2022/10/22 08:44:09;;;;;;;10.10;3.15;;;;;;;13.25;100.00;101053.56;5272603;28;20056;-70
2022/10/22 08:46:53;;;;;;;12.55;2.90;;;;;;;13.41;100.00;101055.81;5277270;28;20032;-71
2022/10/22 08:49:32;;;;;;;11.90;3.15;;;;;;;13.52;100.00;101060.25;5273252;28;20525;-71
2022/10/22 08:52:04;;;;;;;11.13;2.55;;;;;;;13.68;100.00;101073.19;5277140;28;20131;-70
2022/10/22 08:54:50;;;;;;;14.77;2.55;;;;;;;13.64;100.00;101066.41;5264136;28;20569;-70
2022/10/22 08:57:38;;;;;;;12.60;2.85;;;;;;;13.70;100.00;101072.06;5275393;28;20293;-70
2022/10/22 09:00:33;;;;;;;11.48;2.40;;;;;;;13.81;100.00;101087.25;5267873;28;20025;-70
2022/10/22 09:03:22;;;;;;;8.85;1.95;;;;;;;13.86;100.00;101079.63;5270478;28;20056;-70
2022/10/22 09:06:13;;;;;;;10.23;1.98;;;;;;;13.99;100.00;101094.69;5275850;28;20039;-70
2022/10/22 09:08:46;;;;;;;9.63;2.20;;;;;;;14.01;100.00;101093.56;5271958;28;20037;-70
2022/10/22 09:11:20;;;;;;;13.98;2.97;;;;;;;14.07;100.00;101086.81;5274659;28;20482;-71
2022/10/22 09:13:53;;;;;;;;;;;;;;;14.13;100.00;101094.31;5268945;28;20060;-70
2022/10/22 09:16:49;;;;;;;8.15;2.20;;;;;;;14.15;100.00;101104.91;5267952;28;19927;-70
2022/10/22 09:19:31;;;;;;;10.38;2.05;;;;;;;14.15;100.00;101108.44;5265375;28;20035;-70
2022/10/22 09:22:26;;;;;;;8.77;1.75;;;;;;;14.16;100.00;101115.50;5277056;28;20071;-70
2022/10/22 09:25:07;;;;;;;9.80;2.28;;;;;;;14.18;100.00;101118.91;5266835;28;20043;-70
2022/10/22 09:27:38;;;;;;;8.63;1.95;;;;;;;14.18;100.00;101121.59;5274209;28;20111;-70
2022/10/22 09:30:15;;;;;;;11.05;2.50;;;;;;;14.18;100.00;101110.88;5278034;28;20119;-70
2022/10/22 09:32:53;;;;;;;8.20;2.10;;;;;;;14.24;100.00;101115.69;5274015;28;20024;-70
2022/10/22 09:35:24;;;;;;;9.63;2.22;;;;;;;14.28;100.00;101129.69;5268615;28;20028;-70
2022/10/22 09:37:56;;;;;;;13.10;2.83;;;;;;;14.22;100.00;101130.22;5265356;28;20450;-70
2022/10/22 09:40:27;;;;;;;9.88;2.20;;;;;;;14.23;100.00;101137.28;5269888;28;20021;-70
2022/10/22 09:42:58;;;;;;;10.68;2.22;;;;;;;14.28;100.00;101135.06;5265472;28;20349;-71
2022/10/22 09:45:31;;;;;;;9.38;2.35;;;;;;;14.27;100.00;101141.44;5271393;28;20033;-70
2022/10/22 09:48:11;;;;;;;8.52;2.55;;;;;;;14.38;100.00;101133.28;5272900;28;20117;-70
2022/10/22 09:50:47;;;;;;;8.48;2.20;;;;;;;14.42;100.00;101144.56;5248498;28;20045;-71
2022/10/22 09:53:27;;;;;;;9.05;2.50;;;;;;;14.47;100.00;101142.34;5276859;28;20032;-70
2022/10/22 09:56:04;;;;;;;10.75;2.47;;;;;;;14.51;100.00;101149.13;5263914;28;20219;-70
2022/10/22 09:58:44;;;;;;;10.82;2.25;;;;;;;14.60;100.00;101147.53;5265813;28;20166;-70
2022/10/22 10:01:37;;;;;;;10.60;2.08;;;;;;;14.61;100.00;101158.13;5277014;28;20036;-71
2022/10/22 10:04:17;;;;;;;9.73;2.60;;;;;;;14.67;100.00;101162.13;5265721;28;20112;-70
2022/10/22 10:06:53;;;;;;;9.52;2.40;;;;;;;14.63;100.00;101174.09;5269138;28;20119;-71
2022/10/22 10:09:26;;;;;;;7.93;2.53;;;;;;;14.67;100.00;101170.16;5276082;28;20417;-70
2022/10/22 10:12:04;;;;;;;7.83;2.27;;;;;;;14.69;100.00;101185.16;5270599;28;20029;-70
2022/10/22 10:14:44;;;;;;;8.25;2.13;;;;;;;14.74;100.00;101181.19;5269954;28;20478;-70
2022/10/22 10:17:37;;;;;;;8.85;2.60;;;;;;;14.79;100.00;101184.34;5268851;28;20036;-71
2022/10/22 10:20:14;;;;;;;8.80;2.05;;;;;;;14.76;100.00;101190.81;5276453;28;20504;-71
2022/10/22 10:23:02;;;;;;;10.10;2.22;;;;;;;14.78;100.00;101185.31;5272364;28;20330;-71
2022/10/22 10:25:52;;;;;;;10.07;2.45;;;;;;;14.92;100.00;101194.81;5271860;28;20020;-71
2022/10/22 10:28:38;;;;;;;11.85;2.42;;;;;;;14.92;100.00;101195.69;5260968;28;20087;-70
2022/10/22 10:31:26;;;;;;;11.15;2.40;;;;;;;14.94;100.00;101196.41;5263898;28;20074;-70
2022/10/22 10:34:11;;;;;;;9.90;2.40;;;;;;;15.01;100.00;101196.69;5276861;28;20378;-71
2022/10/22 10:37:11;;;;;;;18.73;3.00;;;;;;;15.06;100.00;101197.13;5266632;28;20568;-70
2022/10/22 10:40:10;;;;;;;10.82;2.30;;;;;;;15.09;100.00;101196.84;5270784;28;20031;-71
2022/10/22 10:43:04;;;;;;;6.97;2.08;;;;;;;15.14;100.00;101207.19;5269920;28;20367;-70
2022/10/22 10:45:45;;;;;;;11.18;3.03;;;;;;;15.11;100.00;101205.66;5273245;28;20028;-70
2022/10/22 10:48:43;;;;;;;8.50;2.08;;;;;;;15.23;100.00;101215.28;5273301;28;20099;-69
2022/10/22 10:51:42;;;;;;;8.50;2.25;;;;;;;15.25;100.00;101209.75;5276090;28;20036;-71
2022/10/22 10:54:32;;;;;;;13.57;2.55;;;;;;;15.27;100.00;101210.47;5262105;28;20039;-71
2022/10/22 10:57:10;;;;;;;10.38;2.70;;;;;;;15.25;100.00;101207.91;5267698;28;20032;-71
2022/10/22 11:00:06;;;;;;;11.15;2.65;;;;;;;15.29;100.00;101205.81;5276498;28;20044;-70
2022/10/22 11:02:55;;;;;;;14.30;2.95;;;;;;;15.28;100.00;101207.66;5276389;28;20021;-71
2022/10/22 11:05:36;;;;;;;10.43;2.67;;;;;;;15.34;100.00;101208.06;5268899;28;20024;-71
2022/10/22 11:08:17;;;;;;;11.88;2.65;;;;;;;15.37;100.00;101207.78;5278568;28;20035;-70
2022/10/22 11:10:53;;;;;;;10.80;2.75;;;;;;;15.37;100.00;101200.56;5279711;28;20032;-71
2022/10/22 11:13:51;;;;;;;8.80;2.58;;;;;;;15.39;100.00;101198.59;5272857;28;20028;-71
2022/10/22 11:16:30;;;;;;;15.23;3.53;;;;;;;15.48;100.00;101213.88;5279752;28;20032;-71
2022/10/22 11:19:31;;;;;;;10.35;2.45;;;;;;;15.55;100.00;101214.19;5277560;28;20059;-71
2022/10/22 11:22:14;;;;;;;14.73;3.33;;;;;;;15.61;100.00;101213.63;5278668;28;20063;-71
2022/10/22 11:25:01;;;;;;;13.13;2.72;;;;;;;15.60;100.00;101214.59;5270868;28;20025;-71
2022/10/22 11:27:54;;;;;;;12.90;2.70;;;;;;;15.65;100.00;101215.03;5270522;28;20059;-70
2022/10/22 11:30:34;;;;;;;9.80;2.65;;;;;;;15.70;100.00;101217.28;5275161;28;20023;-70
2022/10/22 11:33:11;;;;;;;14.27;2.50;;;;;;;15.86;100.00;101206.84;5269317;28;20483;-71
2022/10/22 11:35:45;;;;;;;9.05;2.60;;;;;;;15.98;100.00;101201.31;5275053;28;20126;-71
2022/10/22 11:38:23;;;;;;;9.07;2.70;;;;;;;16.11;100.00;101199.16;5278228;28;20047;-71
2022/10/22 11:41:04;;;;;;;11.85;2.42;;;;;;;16.19;100.00;101196.59;5270541;28;20052;-71
2022/10/22 11:43:53;;;;;;;11.48;2.08;;;;;;;16.29;100.00;101201.09;5275086;28;20030;-71
2022/10/22 11:46:33;;;;;;;9.20;3.00;;;;;;;16.29;100.00;101201.09;5275616;28;20036;-71
2022/10/22 11:49:17;;;;;;;11.38;3.08;;;;;;;16.34;100.00;101205.06;5274214;28;20041;-71
2022/10/22 11:51:49;;;;;;;7.57;2.03;;;;;;;16.32;100.00;101203.47;5277235;28;20035;-71